sensor_id;sensor_type;location;lat;lon;timestamp;temperature;humidity
56103;DHT22;41970;48.774;9.280;2024-02-14T00:00:10;4.20;99.90
56103;DHT22;41970;48.774;9.280;2024-02-14T00:02:48;4.20;99.90
56103;DHT22;41970;48.774;9.280;2024-02-14T00:05:17;4.20;99.90
56103;DHT22;41970;48.774;9.280;2024-02-14T00:07:45;4.20;99.90
56103;DHT22;41970;48.774;9.280;2024-02-14T00:10:11;4.20;99.90
56103;DHT22;41970;48.774;9.280;2024-02-14T00:12:37;4.20;99.90
56103;DHT22;41970;48.774;9.280;2024-02-14T00:15:03;4.30;99.90
56103;DHT22;41970;48.774;9.280;2024-02-14T00:17:31;4.30;99.90
56103;DHT22;41970;48.774;9.280;2024-02-14T00:19:57;4.40;99.90
56103;DHT22;41970;48.774;9.280;2024-02-14T00:22:24;4.50;99.90
56103;DHT22;41970;48.774;9.280;2024-02-14T00:24:49;4.50;99.90
56103;DHT22;41970;48.774;9.280;2024-02-14T00:27:15;4.50;99.90
56103;DHT22;41970;48.774;9.280;2024-02-14T00:29:43;4.50;99.90
56103;DHT22;41970;48.774;9.280;2024-02-14T00:32:11;4.60;99.90
56103;DHT22;41970;48.774;9.280;2024-02-14T00:34:37;4.60;99.90
56103;DHT22;41970;48.774;9.280;2024-02-14T00:37:03;4.50;99.90
56103;DHT22;41970;48.774;9.280;2024-02-14T00:39:29;4.50;99.90
56103;DHT22;41970;48.774;9.280;2024-02-14T00:41:55;4.50;99.90
56103;DHT22;41970;48.774;9.280;2024-02-14T00:44:22;4.50;99.90
56103;DHT22;41970;48.774;9.280;2024-02-14T00:46:48;4.50;99.90
56103;DHT22;41970;48.774;9.280;2024-02-14T00:49:14;4.40;99.90
56103;DHT22;41970;48.774;9.280;2024-02-14T00:51:40;4.40;99.90
56103;DHT22;41970;48.774;9.280;2024-02-14T00:54:06;4.40;99.90
56103;DHT22;41970;48.774;9.280;2024-02-14T00:56:33;4.40;99.90
56103;DHT22;41970;48.774;9.280;2024-02-14T00:58:58;4.40;99.90
56103;DHT22;41970;48.774;9.280;2024-02-14T01:01:24;4.40;99.90
56103;DHT22;41970;48.774;9.280;2024-02-14T01:03:51;4.50;99.90
56103;DHT22;41970;48.774;9.280;2024-02-14T01:06:17;4.50;99.90
56103;DHT22;41970;48.774;9.280;2024-02-14T01:08:44;4.60;99.90
56103;DHT22;41970;48.774;9.280;2024-02-14T01:11:10;4.70;99.90
56103;DHT22;41970;48.774;9.280;2024-02-14T01:13:36;4.90;99.90
56103;DHT22;41970;48.774;9.280;2024-02-14T01:16:03;4.90;99.90
56103;DHT22;41970;48.774;9.280;2024-02-14T01:18:30;4.80;99.90
56103;DHT22;41970;48.774;9.280;2024-02-14T01:20:56;4.90;99.90
56103;DHT22;41970;48.774;9.280;2024-02-14T01:23:22;4.90;99.90
56103;DHT22;41970;48.774;9.280;2024-02-14T01:25:48;5.00;99.90
56103;DHT22;41970;48.774;9.280;2024-02-14T01:28:15;4.90;99.90
56103;DHT22;41970;48.774;9.280;2024-02-14T01:30:43;4.90;99.90
56103;DHT22;41970;48.774;9.280;2024-02-14T01:33:08;5.00;99.90
56103;DHT22;41970;48.774;9.280;2024-02-14T01:35:35;5.00;99.90
56103;DHT22;41970;48.774;9.280;2024-02-14T01:38:00;5.00;99.90
56103;DHT22;41970;48.774;9.280;2024-02-14T01:40:28;5.10;99.90
56103;DHT22;41970;48.774;9.280;2024-02-14T01:42:54;5.10;99.90
56103;DHT22;41970;48.774;9.280;2024-02-14T01:45:21;5.30;99.90
56103;DHT22;41970;48.774;9.280;2024-02-14T01:47:48;5.30;99.90
56103;DHT22;41970;48.774;9.280;2024-02-14T01:50:16;5.40;99.90
56103;DHT22;41970;48.774;9.280;2024-02-14T01:52:42;5.40;99.90
56103;DHT22;41970;48.774;9.280;2024-02-14T01:55:12;5.50;99.90
56103;DHT22;41970;48.774;9.280;2024-02-14T01:57:39;5.50;99.90
56103;DHT22;41970;48.774;9.280;2024-02-14T02:00:06;5.70;99.90
56103;DHT22;41970;48.774;9.280;2024-02-14T02:02:35;5.70;99.90
56103;DHT22;41970;48.774;9.280;2024-02-14T02:05:03;5.80;99.90
56103;DHT22;41970;48.774;9.280;2024-02-14T02:07:29;5.80;99.90
56103;DHT22;41970;48.774;9.280;2024-02-14T02:09:56;5.90;99.90
56103;DHT22;41970;48.774;9.280;2024-02-14T02:12:22;6.00;99.90
56103;DHT22;41970;48.774;9.280;2024-02-14T02:14:50;6.00;99.90
56103;DHT22;41970;48.774;9.280;2024-02-14T02:17:16;6.10;99.90
56103;DHT22;41970;48.774;9.280;2024-02-14T02:19:43;6.10;99.90
56103;DHT22;41970;48.774;9.280;2024-02-14T02:22:09;6.20;99.90
56103;DHT22;41970;48.774;9.280;2024-02-14T02:24:35;6.30;99.90
56103;DHT22;41970;48.774;9.280;2024-02-14T02:27:03;6.30;99.90
56103;DHT22;41970;48.774;9.280;2024-02-14T02:29:29;6.30;99.90
56103;DHT22;41970;48.774;9.280;2024-02-14T02:31:54;6.30;99.90
56103;DHT22;41970;48.774;9.280;2024-02-14T02:34:20;6.40;99.90
56103;DHT22;41970;48.774;9.280;2024-02-14T02:36:46;6.40;99.90
56103;DHT22;41970;48.774;9.280;2024-02-14T02:39:16;6.40;99.90
56103;DHT22;41970;48.774;9.280;2024-02-14T02:41:41;6.50;99.90
56103;DHT22;41970;48.774;9.280;2024-02-14T02:44:07;6.50;99.90
56103;DHT22;41970;48.774;9.280;2024-02-14T02:46:33;6.60;99.90
56103;DHT22;41970;48.774;9.280;2024-02-14T02:48:59;6.60;99.90
56103;DHT22;41970;48.774;9.280;2024-02-14T02:51:25;6.70;99.90
56103;DHT22;41970;48.774;9.280;2024-02-14T02:53:51;6.70;99.90
56103;DHT22;41970;48.774;9.280;2024-02-14T02:56:19;6.80;99.90
56103;DHT22;41970;48.774;9.280;2024-02-14T02:58:47;6.70;99.90
56103;DHT22;41970;48.774;9.280;2024-02-14T03:01:14;6.70;99.90
56103;DHT22;41970;48.774;9.280;2024-02-14T03:03:40;6.60;99.90
56103;DHT22;41970;48.774;9.280;2024-02-14T03:06:06;6.60;99.90
56103;DHT22;41970;48.774;9.280;2024-02-14T03:08:33;6.50;99.90
56103;DHT22;41970;48.774;9.280;2024-02-14T03:11:06;6.50;99.90
56103;DHT22;41970;48.774;9.280;2024-02-14T03:13:32;6.50;99.90
56103;DHT22;41970;48.774;9.280;2024-02-14T03:15:58;6.50;99.90
56103;DHT22;41970;48.774;9.280;2024-02-14T03:18:24;6.30;99.90
56103;DHT22;41970;48.774;9.280;2024-02-14T03:20:50;6.30;99.90
56103;DHT22;41970;48.774;9.280;2024-02-14T03:23:19;6.50;99.90
56103;DHT22;41970;48.774;9.280;2024-02-14T03:25:45;6.40;99.90
56103;DHT22;41970;48.774;9.280;2024-02-14T03:28:11;6.40;99.90
56103;DHT22;41970;48.774;9.280;2024-02-14T03:30:38;6.50;99.90
56103;DHT22;41970;48.774;9.280;2024-02-14T03:33:07;6.50;99.90
56103;DHT22;41970;48.774;9.280;2024-02-14T03:35:36;6.60;99.90
56103;DHT22;41970;48.774;9.280;2024-02-14T03:38:02;6.60;99.90
56103;DHT22;41970;48.774;9.280;2024-02-14T03:40:29;6.50;99.90
56103;DHT22;41970;48.774;9.280;2024-02-14T03:42:56;6.40;99.90
56103;DHT22;41970;48.774;9.280;2024-02-14T03:45:22;6.30;99.90
56103;DHT22;41970;48.774;9.280;2024-02-14T03:47:48;6.30;99.90
56103;DHT22;41970;48.774;9.280;2024-02-14T03:50:14;6.20;99.90
56103;DHT22;41970;48.774;9.280;2024-02-14T03:52:41;6.00;99.90
56103;DHT22;41970;48.774;9.280;2024-02-14T03:55:10;6.00;99.90
56103;DHT22;41970;48.774;9.280;2024-02-14T03:57:39;5.90;99.90
56103;DHT22;41970;48.774;9.280;2024-02-14T04:00:05;5.80;99.90
56103;DHT22;41970;48.774;9.280;2024-02-14T04:02:36;5.70;99.90
56103;DHT22;41970;48.774;9.280;2024-02-14T04:05:01;5.70;99.90
56103;DHT22;41970;48.774;9.280;2024-02-14T04:07:32;5.70;99.90
56103;DHT22;41970;48.774;9.280;2024-02-14T04:09:59;5.70;99.90
56103;DHT22;41970;48.774;9.280;2024-02-14T04:12:25;5.70;99.90
56103;DHT22;41970;48.774;9.280;2024-02-14T04:14:51;5.80;99.90
56103;DHT22;41970;48.774;9.280;2024-02-14T04:17:17;5.80;99.90
56103;DHT22;41970;48.774;9.280;2024-02-14T04:19:43;5.80;99.90
56103;DHT22;41970;48.774;9.280;2024-02-14T04:22:09;5.80;99.90
56103;DHT22;41970;48.774;9.280;2024-02-14T04:24:35;5.90;99.90
56103;DHT22;41970;48.774;9.280;2024-02-14T04:27:01;6.00;99.90
56103;DHT22;41970;48.774;9.280;2024-02-14T04:29:28;6.00;99.90
56103;DHT22;41970;48.774;9.280;2024-02-14T04:31:56;5.90;99.90
56103;DHT22;41970;48.774;9.280;2024-02-14T04:34:22;6.00;99.90
56103;DHT22;41970;48.774;9.280;2024-02-14T04:36:48;6.10;99.90
56103;DHT22;41970;48.774;9.280;2024-02-14T04:39:13;6.10;99.90
56103;DHT22;41970;48.774;9.280;2024-02-14T04:41:39;6.10;99.90
56103;DHT22;41970;48.774;9.280;2024-02-14T04:44:05;6.10;99.90
56103;DHT22;41970;48.774;9.280;2024-02-14T04:46:34;6.10;99.90
56103;DHT22;41970;48.774;9.280;2024-02-14T04:49:01;6.10;99.90
56103;DHT22;41970;48.774;9.280;2024-02-14T04:51:29;6.00;99.90
56103;DHT22;41970;48.774;9.280;2024-02-14T04:53:55;6.10;99.90
56103;DHT22;41970;48.774;9.280;2024-02-14T04:56:25;6.10;99.90
56103;DHT22;41970;48.774;9.280;2024-02-14T04:58:53;6.10;99.90
56103;DHT22;41970;48.774;9.280;2024-02-14T05:01:19;6.10;99.90
56103;DHT22;41970;48.774;9.280;2024-02-14T05:03:44;6.10;99.90
56103;DHT22;41970;48.774;9.280;2024-02-14T05:06:10;6.10;99.90
56103;DHT22;41970;48.774;9.280;2024-02-14T05:08:36;6.10;99.90
56103;DHT22;41970;48.774;9.280;2024-02-14T05:11:02;6.10;99.90
56103;DHT22;41970;48.774;9.280;2024-02-14T05:13:30;6.10;99.90
56103;DHT22;41970;48.774;9.280;2024-02-14T05:15:55;6.10;99.90
56103;DHT22;41970;48.774;9.280;2024-02-14T05:18:22;6.10;99.90
56103;DHT22;41970;48.774;9.280;2024-02-14T05:20:48;6.20;99.90
56103;DHT22;41970;48.774;9.280;2024-02-14T05:23:15;6.20;99.90
56103;DHT22;41970;48.774;9.280;2024-02-14T05:25:43;6.30;99.90
56103;DHT22;41970;48.774;9.280;2024-02-14T05:28:09;6.40;99.90
56103;DHT22;41970;48.774;9.280;2024-02-14T05:30:43;6.50;99.90
56103;DHT22;41970;48.774;9.280;2024-02-14T05:33:10;6.60;99.90
56103;DHT22;41970;48.774;9.280;2024-02-14T05:35:36;6.50;99.90
56103;DHT22;41970;48.774;9.280;2024-02-14T05:38:02;6.50;99.90
56103;DHT22;41970;48.774;9.280;2024-02-14T05:40:30;6.60;99.90
56103;DHT22;41970;48.774;9.280;2024-02-14T05:42:56;6.60;99.90
56103;DHT22;41970;48.774;9.280;2024-02-14T05:45:22;6.70;99.90
56103;DHT22;41970;48.774;9.280;2024-02-14T05:47:47;6.70;99.90
56103;DHT22;41970;48.774;9.280;2024-02-14T05:50:13;6.60;99.90
56103;DHT22;41970;48.774;9.280;2024-02-14T05:52:39;6.50;99.90
56103;DHT22;41970;48.774;9.280;2024-02-14T05:55:05;6.40;99.90
56103;DHT22;41970;48.774;9.280;2024-02-14T05:57:31;6.50;99.90
56103;DHT22;41970;48.774;9.280;2024-02-14T05:59:57;6.60;99.90
56103;DHT22;41970;48.774;9.280;2024-02-14T06:02:23;6.50;99.90
56103;DHT22;41970;48.774;9.280;2024-02-14T06:04:48;6.50;99.90
56103;DHT22;41970;48.774;9.280;2024-02-14T06:07:14;6.40;99.90
56103;DHT22;41970;48.774;9.280;2024-02-14T06:09:40;6.50;99.90
56103;DHT22;41970;48.774;9.280;2024-02-14T06:12:06;6.70;99.90
56103;DHT22;41970;48.774;9.280;2024-02-14T06:14:32;6.70;99.90
56103;DHT22;41970;48.774;9.280;2024-02-14T06:17:00;6.60;99.90
56103;DHT22;41970;48.774;9.280;2024-02-14T06:19:27;6.60;99.90
56103;DHT22;41970;48.774;9.280;2024-02-14T06:21:52;6.30;99.90
56103;DHT22;41970;48.774;9.280;2024-02-14T06:24:18;6.20;99.90
56103;DHT22;41970;48.774;9.280;2024-02-14T06:26:45;6.20;99.90
56103;DHT22;41970;48.774;9.280;2024-02-14T06:29:11;6.20;99.90
56103;DHT22;41970;48.774;9.280;2024-02-14T06:31:37;6.10;99.90
56103;DHT22;41970;48.774;9.280;2024-02-14T06:34:03;6.00;99.90
56103;DHT22;41970;48.774;9.280;2024-02-14T06:36:28;6.10;99.90
56103;DHT22;41970;48.774;9.280;2024-02-14T06:38:54;6.20;99.90
56103;DHT22;41970;48.774;9.280;2024-02-14T06:41:20;6.30;99.90
56103;DHT22;41970;48.774;9.280;2024-02-14T06:43:46;6.40;99.90
56103;DHT22;41970;48.774;9.280;2024-02-14T06:46:12;6.50;99.90
56103;DHT22;41970;48.774;9.280;2024-02-14T06:48:38;6.30;99.90
56103;DHT22;41970;48.774;9.280;2024-02-14T06:51:06;6.40;99.90
56103;DHT22;41970;48.774;9.280;2024-02-14T06:53:32;6.50;99.90
56103;DHT22;41970;48.774;9.280;2024-02-14T06:55:58;6.40;99.90
56103;DHT22;41970;48.774;9.280;2024-02-14T06:58:24;6.30;99.90
56103;DHT22;41970;48.774;9.280;2024-02-14T07:00:50;6.20;99.90
56103;DHT22;41970;48.774;9.280;2024-02-14T07:03:16;6.10;99.90
56103;DHT22;41970;48.774;9.280;2024-02-14T07:05:42;6.20;99.90
56103;DHT22;41970;48.774;9.280;2024-02-14T07:08:08;6.40;99.90
56103;DHT22;41970;48.774;9.280;2024-02-14T07:10:33;6.20;99.90
56103;DHT22;41970;48.774;9.280;2024-02-14T07:13:02;6.00;99.90
56103;DHT22;41970;48.774;9.280;2024-02-14T07:15:28;6.00;99.90
56103;DHT22;41970;48.774;9.280;2024-02-14T07:17:55;6.00;99.90
56103;DHT22;41970;48.774;9.280;2024-02-14T07:20:21;6.00;99.90
56103;DHT22;41970;48.774;9.280;2024-02-14T07:22:48;6.00;99.90
56103;DHT22;41970;48.774;9.280;2024-02-14T07:25:19;6.10;99.90
56103;DHT22;41970;48.774;9.280;2024-02-14T07:27:45;6.10;99.90
56103;DHT22;41970;48.774;9.280;2024-02-14T07:30:12;6.00;99.90
56103;DHT22;41970;48.774;9.280;2024-02-14T07:32:38;6.00;99.90
56103;DHT22;41970;48.774;9.280;2024-02-14T07:35:04;6.20;99.90
56103;DHT22;41970;48.774;9.280;2024-02-14T07:37:30;6.30;99.90
56103;DHT22;41970;48.774;9.280;2024-02-14T07:39:56;6.30;99.90
56103;DHT22;41970;48.774;9.280;2024-02-14T07:42:22;6.30;99.90
56103;DHT22;41970;48.774;9.280;2024-02-14T07:44:48;6.30;99.90
56103;DHT22;41970;48.774;9.280;2024-02-14T07:47:14;6.30;99.90
56103;DHT22;41970;48.774;9.280;2024-02-14T07:49:40;6.30;99.90
56103;DHT22;41970;48.774;9.280;2024-02-14T07:52:06;6.40;99.90
56103;DHT22;41970;48.774;9.280;2024-02-14T07:54:32;6.50;99.90
56103;DHT22;41970;48.774;9.280;2024-02-14T07:56:58;6.70;99.90
56103;DHT22;41970;48.774;9.280;2024-02-14T07:59:24;6.80;99.90
56103;DHT22;41970;48.774;9.280;2024-02-14T08:01:49;6.70;99.90
56103;DHT22;41970;48.774;9.280;2024-02-14T08:04:16;6.60;99.90
56103;DHT22;41970;48.774;9.280;2024-02-14T08:06:44;6.60;99.90
56103;DHT22;41970;48.774;9.280;2024-02-14T08:09:10;6.60;99.90
56103;DHT22;41970;48.774;9.280;2024-02-14T08:11:36;6.60;99.90
56103;DHT22;41970;48.774;9.280;2024-02-14T08:14:02;6.60;99.90
56103;DHT22;41970;48.774;9.280;2024-02-14T08:16:28;6.60;99.90
56103;DHT22;41970;48.774;9.280;2024-02-14T08:18:54;6.60;99.90
56103;DHT22;41970;48.774;9.280;2024-02-14T08:21:27;6.60;99.90
56103;DHT22;41970;48.774;9.280;2024-02-14T08:23:54;6.60;99.90
56103;DHT22;41970;48.774;9.280;2024-02-14T08:26:21;6.60;99.90
56103;DHT22;41970;48.774;9.280;2024-02-14T08:28:48;6.70;99.90
56103;DHT22;41970;48.774;9.280;2024-02-14T08:31:14;6.70;99.90
56103;DHT22;41970;48.774;9.280;2024-02-14T08:33:40;6.70;99.90
56103;DHT22;41970;48.774;9.280;2024-02-14T08:36:06;6.80;99.90
56103;DHT22;41970;48.774;9.280;2024-02-14T08:38:33;7.10;99.90
56103;DHT22;41970;48.774;9.280;2024-02-14T08:41:03;7.20;99.90
56103;DHT22;41970;48.774;9.280;2024-02-14T08:43:30;7.40;99.90
56103;DHT22;41970;48.774;9.280;2024-02-14T08:45:56;7.40;99.90
56103;DHT22;41970;48.774;9.280;2024-02-14T08:48:22;7.30;99.90
56103;DHT22;41970;48.774;9.280;2024-02-14T08:50:48;7.50;99.90
56103;DHT22;41970;48.774;9.280;2024-02-14T08:53:14;7.50;99.90
56103;DHT22;41970;48.774;9.280;2024-02-14T08:55:41;7.40;99.90
56103;DHT22;41970;48.774;9.280;2024-02-14T08:58:06;7.30;99.90
56103;DHT22;41970;48.774;9.280;2024-02-14T09:00:35;7.30;99.90
56103;DHT22;41970;48.774;9.280;2024-02-14T09:03:05;7.20;99.90
56103;DHT22;41970;48.774;9.280;2024-02-14T09:05:31;7.20;99.90
56103;DHT22;41970;48.774;9.280;2024-02-14T09:07:57;7.20;99.90
56103;DHT22;41970;48.774;9.280;2024-02-14T09:10:23;7.20;99.90
56103;DHT22;41970;48.774;9.280;2024-02-14T09:12:48;7.20;99.90
56103;DHT22;41970;48.774;9.280;2024-02-14T09:15:14;7.30;99.90
56103;DHT22;41970;48.774;9.280;2024-02-14T09:17:41;7.30;99.90
56103;DHT22;41970;48.774;9.280;2024-02-14T09:20:09;7.40;99.90
56103;DHT22;41970;48.774;9.280;2024-02-14T09:22:36;7.60;99.90
56103;DHT22;41970;48.774;9.280;2024-02-14T09:25:02;7.80;99.90
56103;DHT22;41970;48.774;9.280;2024-02-14T09:27:33;8.00;99.90
56103;DHT22;41970;48.774;9.280;2024-02-14T09:30:01;8.00;99.90
56103;DHT22;41970;48.774;9.280;2024-02-14T09:32:32;8.00;99.90
56103;DHT22;41970;48.774;9.280;2024-02-14T09:35:01;8.30;99.90
56103;DHT22;41970;48.774;9.280;2024-02-14T09:37:30;8.50;99.90
56103;DHT22;41970;48.774;9.280;2024-02-14T09:39:56;8.60;99.90
56103;DHT22;41970;48.774;9.280;2024-02-14T09:42:28;8.70;99.90
56103;DHT22;41970;48.774;9.280;2024-02-14T09:44:59;8.40;99.90
56103;DHT22;41970;48.774;9.280;2024-02-14T09:47:29;8.40;99.90
56103;DHT22;41970;48.774;9.280;2024-02-14T09:49:58;8.60;99.90
56103;DHT22;41970;48.774;9.280;2024-02-14T09:52:24;8.80;99.90
56103;DHT22;41970;48.774;9.280;2024-02-14T09:54:52;8.90;99.90
56103;DHT22;41970;48.774;9.280;2024-02-14T09:57:18;9.10;99.90
56103;DHT22;41970;48.774;9.280;2024-02-14T09:59:45;9.20;99.90
56103;DHT22;41970;48.774;9.280;2024-02-14T10:02:12;9.10;99.90
56103;DHT22;41970;48.774;9.280;2024-02-14T10:04:38;9.20;99.90
56103;DHT22;41970;48.774;9.280;2024-02-14T10:07:05;9.40;99.90
56103;DHT22;41970;48.774;9.280;2024-02-14T10:09:30;9.60;99.90
56103;DHT22;41970;48.774;9.280;2024-02-14T10:11:56;9.90;99.90
56103;DHT22;41970;48.774;9.280;2024-02-14T10:14:23;10.00;99.90
56103;DHT22;41970;48.774;9.280;2024-02-14T10:16:49;10.20;99.90
56103;DHT22;41970;48.774;9.280;2024-02-14T10:19:16;10.30;99.90
56103;DHT22;41970;48.774;9.280;2024-02-14T10:21:42;10.20;99.90
56103;DHT22;41970;48.774;9.280;2024-02-14T10:24:08;10.30;99.90
56103;DHT22;41970;48.774;9.280;2024-02-14T10:26:37;10.40;99.90
56103;DHT22;41970;48.774;9.280;2024-02-14T10:29:03;10.60;99.90
56103;DHT22;41970;48.774;9.280;2024-02-14T10:31:31;10.80;99.90
56103;DHT22;41970;48.774;9.280;2024-02-14T10:33:57;11.10;99.90
56103;DHT22;41970;48.774;9.280;2024-02-14T10:36:24;11.20;99.90
56103;DHT22;41970;48.774;9.280;2024-02-14T10:38:50;11.20;99.90
56103;DHT22;41970;48.774;9.280;2024-02-14T10:41:17;11.10;99.90
56103;DHT22;41970;48.774;9.280;2024-02-14T10:43:43;11.10;99.90
56103;DHT22;41970;48.774;9.280;2024-02-14T10:46:28;11.20;99.90
56103;DHT22;41970;48.774;9.280;2024-02-14T10:49:04;11.40;99.90
56103;DHT22;41970;48.774;9.280;2024-02-14T10:51:32;11.50;99.90
56103;DHT22;41970;48.774;9.280;2024-02-14T10:54:04;11.60;99.90
56103;DHT22;41970;48.774;9.280;2024-02-14T10:56:35;11.80;99.90
56103;DHT22;41970;48.774;9.280;2024-02-14T10:59:04;11.90;99.90
56103;DHT22;41970;48.774;9.280;2024-02-14T11:01:32;11.90;99.90
56103;DHT22;41970;48.774;9.280;2024-02-14T11:04:02;11.80;99.90
56103;DHT22;41970;48.774;9.280;2024-02-14T11:06:30;11.90;99.90
56103;DHT22;41970;48.774;9.280;2024-02-14T11:09:00;12.00;99.90
56103;DHT22;41970;48.774;9.280;2024-02-14T11:11:30;12.10;99.90
56103;DHT22;41970;48.774;9.280;2024-02-14T11:13:59;12.20;99.90
56103;DHT22;41970;48.774;9.280;2024-02-14T11:16:25;12.20;99.90
56103;DHT22;41970;48.774;9.280;2024-02-14T11:19:05;12.30;99.90
56103;DHT22;41970;48.774;9.280;2024-02-14T11:21:31;12.30;99.90
56103;DHT22;41970;48.774;9.280;2024-02-14T11:24:04;12.30;99.90
56103;DHT22;41970;48.774;9.280;2024-02-14T11:26:48;12.30;99.90
56103;DHT22;41970;48.774;9.280;2024-02-14T11:29:21;12.40;99.90
56103;DHT22;41970;48.774;9.280;2024-02-14T11:31:47;12.40;99.90
56103;DHT22;41970;48.774;9.280;2024-02-14T11:34:14;12.00;99.90
56103;DHT22;41970;48.774;9.280;2024-02-14T11:36:42;11.90;99.90
56103;DHT22;41970;48.774;9.280;2024-02-14T11:39:08;12.10;99.90
56103;DHT22;41970;48.774;9.280;2024-02-14T11:41:34;12.10;99.90
56103;DHT22;41970;48.774;9.280;2024-02-14T11:44:06;12.20;99.90
56103;DHT22;41970;48.774;9.280;2024-02-14T11:46:34;12.30;99.90
56103;DHT22;41970;48.774;9.280;2024-02-14T11:49:01;12.40;99.90
56103;DHT22;41970;48.774;9.280;2024-02-14T11:51:34;12.40;99.90
56103;DHT22;41970;48.774;9.280;2024-02-14T11:54:05;12.40;99.90
56103;DHT22;41970;48.774;9.280;2024-02-14T11:56:33;12.30;99.90
56103;DHT22;41970;48.774;9.280;2024-02-14T11:59:00;12.30;99.90
56103;DHT22;41970;48.774;9.280;2024-02-14T12:01:35;12.40;99.90
56103;DHT22;41970;48.774;9.280;2024-02-14T12:04:02;12.40;99.90
56103;DHT22;41970;48.774;9.280;2024-02-14T12:06:30;12.30;99.90
56103;DHT22;41970;48.774;9.280;2024-02-14T12:09:04;12.40;99.90
56103;DHT22;41970;48.774;9.280;2024-02-14T12:11:38;12.40;99.90
56103;DHT22;41970;48.774;9.280;2024-02-14T12:14:08;12.30;99.90
56103;DHT22;41970;48.774;9.280;2024-02-14T12:16:35;12.20;99.90
56103;DHT22;41970;48.774;9.280;2024-02-14T12:19:13;12.20;99.90
56103;DHT22;41970;48.774;9.280;2024-02-14T12:21:41;12.30;99.90
56103;DHT22;41970;48.774;9.280;2024-02-14T12:24:10;12.40;99.90
56103;DHT22;41970;48.774;9.280;2024-02-14T12:26:37;12.40;99.90
56103;DHT22;41970;48.774;9.280;2024-02-14T12:29:04;12.60;99.90
56103;DHT22;41970;48.774;9.280;2024-02-14T12:31:30;12.70;99.90
56103;DHT22;41970;48.774;9.280;2024-02-14T12:33:57;12.70;99.90
56103;DHT22;41970;48.774;9.280;2024-02-14T12:36:26;12.70;99.90
56103;DHT22;41970;48.774;9.280;2024-02-14T12:38:56;12.60;99.90
56103;DHT22;41970;48.774;9.280;2024-02-14T12:41:22;12.70;99.90
56103;DHT22;41970;48.774;9.280;2024-02-14T12:43:59;12.70;99.90
56103;DHT22;41970;48.774;9.280;2024-02-14T12:46:26;12.80;99.90
56103;DHT22;41970;48.774;9.280;2024-02-14T12:48:52;12.90;99.90
56103;DHT22;41970;48.774;9.280;2024-02-14T12:51:18;12.90;99.90
56103;DHT22;41970;48.774;9.280;2024-02-14T12:53:43;12.80;99.90
56103;DHT22;41970;48.774;9.280;2024-02-14T12:56:09;12.80;99.90
56103;DHT22;41970;48.774;9.280;2024-02-14T12:58:36;13.00;99.90
56103;DHT22;41970;48.774;9.280;2024-02-14T13:01:02;13.20;99.90
56103;DHT22;41970;48.774;9.280;2024-02-14T13:03:32;13.20;99.90
56103;DHT22;41970;48.774;9.280;2024-02-14T13:05:59;13.20;99.90
56103;DHT22;41970;48.774;9.280;2024-02-14T13:08:25;13.40;99.90
56103;DHT22;41970;48.774;9.280;2024-02-14T13:10:51;13.50;99.90
56103;DHT22;41970;48.774;9.280;2024-02-14T13:13:16;13.50;99.90
56103;DHT22;41970;48.774;9.280;2024-02-14T13:15:42;13.60;99.90
56103;DHT22;41970;48.774;9.280;2024-02-14T13:18:10;13.70;99.90
56103;DHT22;41970;48.774;9.280;2024-02-14T13:20:36;13.70;99.90
56103;DHT22;41970;48.774;9.280;2024-02-14T13:23:03;13.70;99.90
56103;DHT22;41970;48.774;9.280;2024-02-14T13:25:29;13.80;99.90
56103;DHT22;41970;48.774;9.280;2024-02-14T13:27:55;13.80;99.90
56103;DHT22;41970;48.774;9.280;2024-02-14T13:30:21;13.80;99.90
56103;DHT22;41970;48.774;9.280;2024-02-14T13:32:48;13.70;99.90
56103;DHT22;41970;48.774;9.280;2024-02-14T13:35:14;13.80;99.90
56103;DHT22;41970;48.774;9.280;2024-02-14T13:37:39;13.80;99.90
56103;DHT22;41970;48.774;9.280;2024-02-14T13:40:06;13.90;99.90
56103;DHT22;41970;48.774;9.280;2024-02-14T13:42:36;13.90;99.90
56103;DHT22;41970;48.774;9.280;2024-02-14T13:45:07;13.90;99.90
56103;DHT22;41970;48.774;9.280;2024-02-14T13:47:40;14.00;99.90
56103;DHT22;41970;48.774;9.280;2024-02-14T13:50:08;14.00;99.90
56103;DHT22;41970;48.774;9.280;2024-02-14T13:52:35;14.00;99.90
56103;DHT22;41970;48.774;9.280;2024-02-14T13:55:05;14.00;99.90
56103;DHT22;41970;48.774;9.280;2024-02-14T13:57:39;14.00;99.90
56103;DHT22;41970;48.774;9.280;2024-02-14T14:00:07;14.00;99.90
56103;DHT22;41970;48.774;9.280;2024-02-14T14:02:36;14.00;99.90
56103;DHT22;41970;48.774;9.280;2024-02-14T14:05:09;14.00;99.90
56103;DHT22;41970;48.774;9.280;2024-02-14T14:07:39;14.10;99.90
56103;DHT22;41970;48.774;9.280;2024-02-14T14:10:05;14.00;99.90
56103;DHT22;41970;48.774;9.280;2024-02-14T14:12:32;14.10;99.90
56103;DHT22;41970;48.774;9.280;2024-02-14T14:14:58;14.10;99.90
56103;DHT22;41970;48.774;9.280;2024-02-14T14:17:24;14.20;99.90
56103;DHT22;41970;48.774;9.280;2024-02-14T14:19:51;14.20;99.90
56103;DHT22;41970;48.774;9.280;2024-02-14T14:22:17;14.20;99.90
56103;DHT22;41970;48.774;9.280;2024-02-14T14:24:43;14.20;99.90
56103;DHT22;41970;48.774;9.280;2024-02-14T14:27:09;14.20;99.90
56103;DHT22;41970;48.774;9.280;2024-02-14T14:29:43;14.10;99.90
56103;DHT22;41970;48.774;9.280;2024-02-14T14:32:09;14.10;99.90
56103;DHT22;41970;48.774;9.280;2024-02-14T14:34:36;14.10;99.90
56103;DHT22;41970;48.774;9.280;2024-02-14T14:37:04;14.00;99.90
56103;DHT22;41970;48.774;9.280;2024-02-14T14:39:31;14.00;99.90
56103;DHT22;41970;48.774;9.280;2024-02-14T14:41:57;14.00;99.90
56103;DHT22;41970;48.774;9.280;2024-02-14T14:44:26;14.00;99.90
56103;DHT22;41970;48.774;9.280;2024-02-14T14:46:53;14.00;99.90
56103;DHT22;41970;48.774;9.280;2024-02-14T14:49:19;14.10;99.90
56103;DHT22;41970;48.774;9.280;2024-02-14T14:51:45;14.10;99.90
56103;DHT22;41970;48.774;9.280;2024-02-14T14:54:11;14.10;99.90
56103;DHT22;41970;48.774;9.280;2024-02-14T14:56:37;14.10;99.90
56103;DHT22;41970;48.774;9.280;2024-02-14T14:59:03;14.10;99.90
56103;DHT22;41970;48.774;9.280;2024-02-14T15:01:31;14.10;99.90
56103;DHT22;41970;48.774;9.280;2024-02-14T15:03:59;14.10;99.90
56103;DHT22;41970;48.774;9.280;2024-02-14T15:06:25;14.10;99.90
56103;DHT22;41970;48.774;9.280;2024-02-14T15:08:51;14.10;99.90
56103;DHT22;41970;48.774;9.280;2024-02-14T15:11:17;14.20;99.90
56103;DHT22;41970;48.774;9.280;2024-02-14T15:13:46;14.20;99.90
56103;DHT22;41970;48.774;9.280;2024-02-14T15:16:13;14.00;99.90
56103;DHT22;41970;48.774;9.280;2024-02-14T15:18:39;14.00;99.90
56103;DHT22;41970;48.774;9.280;2024-02-14T15:21:07;14.00;99.90
56103;DHT22;41970;48.774;9.280;2024-02-14T15:23:33;14.10;99.90
56103;DHT22;41970;48.774;9.280;2024-02-14T15:25:59;14.10;99.90
56103;DHT22;41970;48.774;9.280;2024-02-14T15:28:35;14.10;99.90
56103;DHT22;41970;48.774;9.280;2024-02-14T15:31:08;14.00;99.90
56103;DHT22;41970;48.774;9.280;2024-02-14T15:33:53;14.10;99.90
56103;DHT22;41970;48.774;9.280;2024-02-14T15:36:21;14.10;99.90
56103;DHT22;41970;48.774;9.280;2024-02-14T15:38:47;14.10;99.90